Time;durP1;ratioP1;P1;durP2;ratioP2;P2;SDS_P1;SDS_P2;PMS_P1;PMS_P2;Temp;Humidity;BMP_temperature;BMP_pressure;BME280_temperature;BME280_humidity;BME280_pressure;Samples;Min_cycle;Max_cycle;Signal;HPM_P1;HPM_P2
2021/01/12 00:02:24;;;;;;;25.33;14.30;;;2.10;85.90;;;;;;5012716;28;20022;-75
2021/01/12 00:04:50;;;;;;;26.15;12.95;;;2.10;85.80;;;;;;5012555;28;20030;-75
2021/01/12 00:07:21;;;;;;;29.77;14.23;;;2.10;85.70;;;;;;5013397;28;20104;-76
2021/01/12 00:09:48;;;;;;;35.63;16.58;;;2.10;85.50;;;;;;5012599;28;20029;-76
2021/01/12 00:12:13;;;;;;;28.90;14.80;;;2.10;85.40;;;;;;5012645;28;20097;-74
2021/01/12 00:14:39;;;;;;;26.20;14.48;;;2.10;85.30;;;;;;4996925;28;20054;-75
2021/01/12 00:17:07;;;;;;;29.67;15.13;;;2.10;85.30;;;;;;5014667;28;20080;-76
2021/01/12 00:19:34;;;;;;;28.13;14.05;;;2.10;85.30;;;;;;5013703;28;20480;-76
2021/01/12 00:22:01;;;;;;;26.17;13.50;;;2.00;85.20;;;;;;4995297;28;20103;-75
2021/01/12 00:24:27;;;;;;;27.45;15.63;;;2.10;85.10;;;;;;5012066;28;20040;-76
2021/01/12 00:26:53;;;;;;;24.70;13.07;;;2.10;85.10;;;;;;4995391;28;20034;-76
2021/01/12 00:29:19;;;;;;;21.73;11.68;;;2.00;85.00;;;;;;5012482;28;20062;-77
2021/01/12 00:31:46;;;;;;;19.40;11.02;;;2.00;85.00;;;;;;4994585;28;20104;-76
2021/01/12 00:34:13;;;;;;;23.90;12.52;;;2.00;85.00;;;;;;5011741;28;20477;-76
2021/01/12 00:36:57;;;;;;;20.60;11.38;;;2.00;84.90;;;;;;5012209;28;20493;-76
2021/01/12 00:39:23;;;;;;;22.92;11.52;;;2.00;84.90;;;;;;4994321;28;20030;-76
2021/01/12 00:41:52;;;;;;;24.95;12.13;;;2.00;84.80;;;;;;5012137;28;20138;-77
2021/01/12 00:44:18;;;;;;;18.35;10.20;;;2.00;84.80;;;;;;5012059;28;20037;-76
2021/01/12 00:46:45;;;;;;;26.85;12.00;;;2.00;84.90;;;;;;5011924;28;20030;-77
2021/01/12 00:49:12;;;;;;;22.80;11.82;;;2.00;84.80;;;;;;5012228;28;20113;-75
2021/01/12 00:51:39;;;;;;;25.75;12.35;;;2.00;84.90;;;;;;5011842;28;20034;-76
2021/01/12 00:54:07;;;;;;;22.70;12.77;;;2.00;84.80;;;;;;4994333;28;20144;-77
2021/01/12 00:56:33;;;;;;;23.38;12.13;;;2.00;84.70;;;;;;4994702;28;20096;-76
2021/01/12 00:58:59;;;;;;;24.02;12.30;;;2.00;84.70;;;;;;5012002;28;20491;-75
2021/01/12 01:01:25;;;;;;;23.60;11.98;;;2.00;84.70;;;;;;5011877;28;20051;-77
2021/01/12 01:03:50;;;;;;;22.92;11.68;;;2.00;84.70;;;;;;4994178;28;20096;-76
2021/01/12 01:06:16;;;;;;;23.02;11.95;;;2.00;84.70;;;;;;5011575;28;20026;-76
2021/01/12 01:08:42;;;;;;;21.77;11.50;;;2.00;84.70;;;;;;5011934;28;20579;-77
2021/01/12 01:11:07;;;;;;;19.35;10.80;;;2.00;84.60;;;;;;5011770;28;20030;-77
2021/01/12 01:13:33;;;;;;;21.65;11.30;;;2.00;84.60;;;;;;5012132;28;20420;-76
2021/01/12 01:15:59;;;;;;;20.38;11.38;;;2.00;84.60;;;;;;4994172;28;20049;-76
2021/01/12 01:18:25;;;;;;;24.88;12.40;;;2.00;85.20;;;;;;4994472;28;20057;-77
2021/01/12 01:20:50;;;;;;;22.88;11.80;;;2.00;84.70;;;;;;4994193;28;20104;-76
2021/01/12 01:23:17;;;;;;;22.95;12.68;;;2.00;84.70;;;;;;5011921;28;20030;-76
2021/01/12 01:25:43;;;;;;;26.13;13.55;;;2.00;84.80;;;;;;5011756;28;20041;-77
2021/01/12 01:28:09;;;;;;;23.63;10.75;;;2.00;84.80;;;;;;4994338;28;20030;-77
2021/01/12 01:30:35;;;;;;;19.27;10.18;;;2.00;84.70;;;;;;4994085;28;20026;-76
2021/01/12 01:33:01;;;;;;;17.15;10.40;;;2.00;85.10;;;;;;4993985;28;20033;-76
2021/01/12 01:35:27;;;;;;;18.85;10.13;;;2.00;84.60;;;;;;5012591;28;20033;-76
2021/01/12 01:37:53;;;;;;;17.45;9.60;;;2.00;84.60;;;;;;4997516;28;20032;-75
2021/01/12 01:40:23;;;;;;;20.75;10.93;;;2.00;84.60;;;;;;4997651;28;20022;-75
2021/01/12 01:42:50;;;;;;;23.67;11.25;;;2.00;84.50;;;;;;5015135;28;20165;-76
2021/01/12 01:45:17;;;;;;;20.42;10.80;;;2.00;84.50;;;;;;5015070;28;20037;-75
2021/01/12 01:47:44;;;;;;;25.73;12.82;;;2.00;84.50;;;;;;4997568;28;20468;-76
2021/01/12 01:50:16;;;;;;;27.77;12.73;;;2.00;84.60;;;;;;5014841;28;20037;-76
2021/01/12 01:52:46;;;;;;;26.13;12.77;;;2.00;84.60;;;;;;5015255;28;20034;-76
2021/01/12 01:55:13;;;;;;;26.65;12.60;;;2.00;84.60;;;;;;5014787;28;20038;-78
2021/01/12 01:57:39;;;;;;;15.65;8.98;;;2.00;84.60;;;;;;5014946;28;20029;-78
2021/01/12 02:00:06;;;;;;;16.30;8.90;;;2.00;84.50;;;;;;5014869;28;20384;-77
2021/01/12 02:02:46;;;;;;;22.35;10.13;;;1.90;84.40;;;;;;5015020;28;20037;-76
2021/01/12 02:05:13;;;;;;;18.35;9.23;;;1.90;84.30;;;;;;5014853;28;20049;-76
2021/01/12 02:07:44;;;;;;;15.48;8.63;;;1.90;84.30;;;;;;5014860;28;20025;-76
2021/01/12 02:10:15;;;;;;;16.60;9.10;;;1.90;84.30;;;;;;5014692;28;20029;-78
2021/01/12 02:12:47;;;;;;;20.40;9.30;;;1.90;84.50;;;;;;5014826;28;20022;-76
2021/01/12 02:15:23;;;;;;;20.15;10.15;;;1.90;84.50;;;;;;5014426;28;20388;-76
2021/01/12 02:17:51;;;;;;;17.63;9.52;;;1.90;84.50;;;;;;5014378;28;20022;-76
2021/01/12 02:20:17;;;;;;;18.80;11.18;;;1.90;84.20;;;;;;5014295;28;20468;-76
2021/01/12 02:22:47;;;;;;;20.58;10.90;;;1.90;84.40;;;;;;5014219;28;20022;-76
2021/01/12 02:25:17;;;;;;;28.02;13.07;;;1.80;84.30;;;;;;5014135;28;20022;-76
2021/01/12 02:27:43;;;;;;;29.95;14.23;;;1.80;84.30;;;;;;5014420;28;20026;-77
2021/01/12 02:30:09;;;;;;;30.67;13.98;;;1.80;84.90;;;;;;5014178;28;20081;-77
2021/01/12 02:32:36;;;;;;;25.80;12.15;;;1.80;84.60;;;;;;5014269;28;20025;-75
2021/01/12 02:35:02;;;;;;;20.38;11.63;;;1.90;84.30;;;;;;5014147;28;20370;-77
2021/01/12 02:37:29;;;;;;;19.15;10.77;;;1.90;84.30;;;;;;5014119;28;20025;-77
2021/01/12 02:39:59;;;;;;;25.40;11.35;;;1.90;84.30;;;;;;5013825;28;20469;-76
2021/01/12 02:42:26;;;;;;;21.52;11.50;;;1.90;84.30;;;;;;5013913;28;20045;-75
2021/01/12 02:44:52;;;;;;;22.33;11.65;;;1.90;84.30;;;;;;5013940;28;20571;-75
2021/01/12 02:47:19;;;;;;;17.98;10.57;;;1.90;84.30;;;;;;5013285;28;20128;-76
2021/01/12 02:49:44;;;;;;;19.67;10.30;;;1.90;84.40;;;;;;5013656;28;20030;-76
2021/01/12 02:52:13;;;;;;;22.35;10.57;;;1.80;84.30;;;;;;5013409;28;20084;-77
2021/01/12 02:54:42;;;;;;;17.83;10.60;;;1.80;84.30;;;;;;5013651;28;20045;-76
2021/01/12 02:57:08;;;;;;;20.48;9.93;;;1.80;84.20;;;;;;5013676;28;20093;-76
2021/01/12 02:59:34;;;;;;;18.67;9.65;;;1.80;84.30;;;;;;5013768;28;20030;-76
2021/01/12 03:02:00;;;;;;;20.92;10.55;;;1.80;84.40;;;;;;5013849;28;20032;-77
2021/01/12 03:04:25;;;;;;;17.17;9.38;;;1.90;84.50;;;;;;4996033;28;20036;-77
2021/01/12 03:06:54;;;;;;;19.02;9.85;;;1.80;84.40;;;;;;5013649;28;20037;-77
2021/01/12 03:09:20;;;;;;;21.58;10.27;;;1.80;84.50;;;;;;5013485;28;20030;-76
2021/01/12 03:11:51;;;;;;;18.98;9.80;;;1.90;84.60;;;;;;5013513;28;20037;-76
2021/01/12 03:14:17;;;;;;;19.83;10.40;;;1.90;84.50;;;;;;5013153;28;20037;-77
2021/01/12 03:16:42;;;;;;;18.63;9.93;;;1.90;84.70;;;;;;5013418;28;20029;-76
2021/01/12 03:19:08;;;;;;;17.98;9.38;;;1.90;84.70;;;;;;5013420;28;20097;-76
2021/01/12 03:21:34;;;;;;;19.90;9.95;;;1.90;84.70;;;;;;5013439;28;20089;-76
2021/01/12 03:24:00;;;;;;;20.00;10.07;;;1.90;84.70;;;;;;5013545;28;20025;-76
2021/01/12 03:26:25;;;;;;;19.98;10.32;;;1.80;84.60;;;;;;5013293;28;20022;-77
2021/01/12 03:28:51;;;;;;;23.75;10.43;;;1.80;84.50;;;;;;5013017;28;20388;-77
2021/01/12 03:31:16;;;;;;;20.35;10.70;;;1.80;84.60;;;;;;5013102;28;20101;-76
2021/01/12 03:33:42;;;;;;;23.75;10.27;;;1.80;84.60;;;;;;4995496;28;20025;-77
2021/01/12 03:36:08;;;;;;;23.58;10.65;;;1.80;84.60;;;;;;5013398;28;20498;-77
2021/01/12 03:38:34;;;;;;;21.38;10.20;;;1.80;84.70;;;;;;5013252;28;20472;-76
2021/01/12 03:41:00;;;;;;;25.42;11.48;;;1.80;84.60;;;;;;5013326;28;20554;-75
2021/01/12 03:43:26;;;;;;;25.33;11.65;;;1.80;84.70;;;;;;5013055;28;20081;-76
2021/01/12 03:45:52;;;;;;;27.05;11.55;;;1.80;84.60;;;;;;5012780;28;20025;-76
2021/01/12 03:48:17;;;;;;;24.27;12.35;;;1.80;84.50;;;;;;5012887;28;20033;-76
2021/01/12 03:50:46;;;;;;;28.77;11.95;;;1.70;84.30;;;;;;5012750;28;20033;-75
2021/01/12 03:53:15;;;;;;;30.17;13.18;;;1.70;84.40;;;;;;5013014;28;20044;-76
2021/01/12 03:55:41;;;;;;;29.45;12.40;;;1.70;84.40;;;;;;4995108;28;20496;-75
2021/01/12 03:58:07;;;;;;;24.80;12.75;;;1.70;84.50;;;;;;5012198;28;20097;-74
2021/01/12 04:00:33;;;;;;;24.98;12.75;;;1.70;84.50;;;;;;5012019;28;20022;-76
2021/01/12 04:03:26;;;;;;;27.73;13.10;;;1.70;84.60;;;;;;5014352;28;20034;-77
2021/01/12 04:05:54;;;;;;;;;;;1.70;84.70;;;;;;4997067;28;20504;-76
2021/01/12 04:08:20;;;;;;;27.20;12.55;;;1.70;85.00;;;;;;5015231;28;19955;-75
2021/01/12 04:10:46;;;;;;;27.48;11.82;;;1.70;85.10;;;;;;4999176;28;20116;-76
2021/01/12 04:13:12;;;;;;;31.77;12.57;;;1.70;85.00;;;;;;4999211;28;20026;-77
2021/01/12 04:15:39;;;;;;;26.50;12.95;;;1.70;85.00;;;;;;4988585;28;20082;-76
2021/01/12 04:18:05;;;;;;;26.10;12.73;;;1.70;85.00;;;;;;4997480;28;20081;-76
2021/01/12 04:20:41;;;;;;;25.98;13.07;;;1.70;85.00;;;;;;4979584;28;20024;-76
2021/01/12 04:23:06;;;;;;;28.10;13.27;;;1.70;85.00;;;;;;4978009;28;20125;-75
2021/01/12 04:25:35;;;;;;;25.45;12.63;;;1.70;85.10;;;;;;4979215;28;20062;-76
2021/01/12 04:28:05;;;;;;;27.52;13.35;;;1.70;85.10;;;;;;4979652;28;20030;-76
2021/01/12 04:30:31;;;;;;;25.50;13.05;;;1.70;85.10;;;;;;4996924;28;20058;-75
2021/01/12 04:32:57;;;;;;;26.88;12.30;;;1.70;85.00;;;;;;4999252;28;20037;-77
2021/01/12 04:35:35;;;;;;;22.50;11.75;;;1.70;85.10;;;;;;4982455;28;20022;-77
2021/01/12 04:38:01;;;;;;;21.50;10.93;;;1.70;85.00;;;;;;4984190;28;20023;-77
2021/01/12 04:40:46;;;;;;;23.02;11.30;;;1.70;84.90;;;;;;4984199;28;20077;-76
2021/01/12 04:43:15;;;;;;;30.33;12.38;;;1.60;84.80;;;;;;5000953;28;20022;-77
2021/01/12 04:45:54;;;;;;;19.83;10.93;;;1.70;84.90;;;;;;4983970;28;20023;-77
2021/01/12 04:48:20;;;;;;;23.73;11.65;;;1.70;84.90;;;;;;4984292;28;20057;-77
2021/01/12 04:50:46;;;;;;;30.27;12.00;;;1.70;84.70;;;;;;4978994;28;20029;-77
2021/01/12 04:53:39;;;;;;;25.45;12.48;;;1.70;84.70;;;;;;5000166;28;20034;-78
2021/01/12 04:56:06;;;;;;;23.65;11.30;;;1.60;84.40;;;;;;4980676;28;20372;-76
2021/01/12 04:58:43;;;;;;;21.75;11.55;;;1.60;84.30;;;;;;4997341;28;20033;-76
2021/01/12 05:01:13;;;;;;;23.40;12.82;;;1.60;84.40;;;;;;4977880;28;20084;-76
2021/01/12 05:03:45;;;;;;;23.95;12.32;;;1.50;84.40;;;;;;4991944;28;20065;-76
2021/01/12 05:06:12;;;;;;;24.33;12.52;;;1.60;84.50;;;;;;4991931;28;20030;-77
2021/01/12 05:08:46;;;;;;;29.15;13.48;;;1.60;84.40;;;;;;4991984;28;20085;-76
2021/01/12 05:11:12;;;;;;;28.08;12.18;;;1.50;84.20;;;;;;4994050;28;20105;-76
2021/01/12 05:13:43;;;;;;;25.48;12.00;;;1.50;84.20;;;;;;4995743;28;20022;-76
2021/01/12 05:16:13;;;;;;;19.10;10.32;;;1.50;84.10;;;;;;5010135;28;20049;-76
2021/01/12 05:18:40;;;;;;;20.55;10.90;;;1.50;84.30;;;;;;5015465;28;20482;-75
2021/01/12 05:21:09;;;;;;;16.45;8.73;;;1.50;84.30;;;;;;4997937;28;20026;-76
2021/01/12 05:24:05;;;;;;;19.45;9.05;;;1.50;84.20;;;;;;5016240;28;20434;-76
2021/01/12 05:26:36;;;;;;;16.23;8.60;;;1.50;84.00;;;;;;4998453;28;20113;-75
2021/01/12 05:29:03;;;;;;;19.98;8.40;;;1.50;83.90;;;;;;5018041;28;20030;-75
2021/01/12 05:31:29;;;;;;;14.60;7.68;;;1.50;83.90;;;;;;5016102;28;20021;-76
2021/01/12 05:34:04;;;;;;;19.67;8.60;;;1.50;83.80;;;;;;4997331;28;20026;-75
2021/01/12 05:36:31;;;;;;;19.23;8.45;;;1.40;83.60;;;;;;4998251;28;20495;-76
2021/01/12 05:39:03;;;;;;;14.30;7.70;;;1.50;83.70;;;;;;4999806;28;20030;-77
2021/01/12 05:41:51;;;;;;;14.82;7.80;;;1.50;83.70;;;;;;5002806;28;20380;-76
2021/01/12 05:44:21;;;;;;;17.08;8.55;;;1.50;83.60;;;;;;5024320;28;20515;-76
2021/01/12 05:46:49;;;;;;;19.63;9.57;;;1.50;83.60;;;;;;5020591;28;20129;-76
2021/01/12 05:49:25;;;;;;;19.73;9.90;;;1.50;83.30;;;;;;5004052;28;20460;-77
2021/01/12 05:51:51;;;;;;;20.58;10.07;;;1.40;83.20;;;;;;5018800;28;20029;-77
2021/01/12 05:54:36;;;;;;;20.67;9.20;;;1.40;83.10;;;;;;5017755;28;20413;-76
2021/01/12 05:57:04;;;;;;;20.48;10.18;;;1.40;83.10;;;;;;4997890;28;20030;-76
2021/01/12 05:59:35;;;;;;;22.40;9.77;;;1.40;83.20;;;;;;5015047;28;20042;-76
2021/01/12 06:02:10;;;;;;;19.30;9.88;;;1.40;82.80;;;;;;5015289;28;20464;-76
2021/01/12 06:04:36;;;;;;;19.35;9.93;;;1.40;82.90;;;;;;4997839;28;20030;-77
2021/01/12 06:07:04;;;;;;;31.40;13.43;;;1.40;83.10;;;;;;5015576;28;20124;-77
2021/01/12 06:09:32;;;;;;;37.97;16.00;;;1.50;83.20;;;;;;5015322;28;20026;-76
2021/01/12 06:11:58;;;;;;;51.22;18.90;;;1.40;83.00;;;;;;5015669;28;20037;-77
2021/01/12 06:14:29;;;;;;;36.35;12.68;;;1.50;83.10;;;;;;5014931;28;20023;-77
2021/01/12 06:16:56;;;;;;;27.52;12.75;;;1.40;82.40;;;;;;4997299;28;20037;-77
2021/01/12 06:19:29;;;;;;;29.50;13.32;;;1.40;81.90;;;;;;5014222;28;20022;-77
2021/01/12 06:21:54;;;;;;;38.53;14.98;;;1.20;81.60;;;;;;5013412;28;20472;-77
2021/01/12 06:24:36;;;;;;;36.05;13.55;;;1.10;81.50;;;;;;4996631;28;20029;-77
2021/01/12 06:27:06;;;;;;;40.47;16.75;;;1.10;81.80;;;;;;4996621;28;20034;-77
2021/01/12 06:29:34;;;;;;;44.70;21.20;;;1.10;82.10;;;;;;5013731;28;20026;-78
2021/01/12 06:32:00;;;;;;;36.97;17.17;;;1.10;82.30;;;;;;5014525;28;20507;-76
2021/01/12 06:34:26;;;;;;;49.35;20.70;;;1.10;82.60;;;;;;4996453;28;20022;-77
2021/01/12 06:36:54;;;;;;;27.30;12.50;;;1.20;82.70;;;;;;4996921;28;20025;-79
2021/01/12 06:39:28;;;;;;;25.70;13.02;;;1.20;82.70;;;;;;4998104;28;20021;-78
2021/01/12 06:41:54;;;;;;;25.08;12.63;;;1.20;82.40;;;;;;4996611;28;20018;-78
2021/01/12 06:44:24;;;;;;;26.92;13.13;;;1.20;82.30;;;;;;5014905;28;20023;-78
2021/01/12 06:46:53;;;;;;;39.30;13.55;;;1.20;82.30;;;;;;5014806;28;20056;-77
2021/01/12 06:49:24;;;;;;;29.92;12.73;;;1.20;82.70;;;;;;5015285;28;20029;-79
2021/01/12 06:52:00;;;;;;;22.67;11.20;;;1.20;82.10;;;;;;4997753;28;20475;-78
2021/01/12 06:54:37;;;;;;;19.25;10.07;;;1.20;82.00;;;;;;4997417;28;20033;-76
2021/01/12 06:57:28;;;;;;;19.00;8.35;;;1.20;81.90;;;;;;4997911;28;20022;-80
2021/01/12 06:59:57;;;;;;;17.88;9.88;;;1.10;81.50;;;;;;5007199;28;20108;-76
2021/01/12 07:02:32;;;;;;;18.60;8.95;;;1.10;81.90;;;;;;5013776;28;20033;-77
2021/01/12 07:05:07;;;;;;;20.65;9.73;;;1.10;82.00;;;;;;4996282;28;20113;-78
2021/01/12 07:07:37;;;;;;;21.80;10.38;;;1.10;82.10;;;;;;4995991;28;20029;-76
2021/01/12 07:10:13;;;;;;;20.42;9.55;;;1.20;82.30;;;;;;4996011;28;20570;-76
2021/01/12 07:12:40;;;;;;;21.45;10.40;;;1.20;82.30;;;;;;4995956;28;20030;-76
2021/01/12 07:15:28;;;;;;;21.00;9.73;;;1.30;82.50;;;;;;5015618;28;20069;-76
2021/01/12 07:17:57;;;;;;;22.10;10.98;;;1.30;82.10;;;;;;4997678;28;20113;-77
2021/01/12 07:20:24;;;;;;;23.08;11.38;;;1.30;81.70;;;;;;5013235;28;20046;-76
2021/01/12 07:23:02;;;;;;;26.70;11.80;;;1.30;81.90;;;;;;4996354;28;20032;-76
2021/01/12 07:25:39;;;;;;;24.83;12.25;;;1.30;82.10;;;;;;4996884;28;20037;-78
2021/01/12 07:28:09;;;;;;;30.02;12.43;;;1.30;82.30;;;;;;4997431;28;20080;-78
2021/01/12 07:30:41;;;;;;;27.48;12.98;;;1.40;82.40;;;;;;4996053;28;20025;-78
2021/01/12 07:33:17;;;;;;;23.63;11.65;;;1.50;83.00;;;;;;5013340;28;20030;-81
2021/01/12 07:35:47;;;;;;;19.23;10.18;;;1.50;82.10;;;;;;4996481;28;20065;-80
2021/01/12 07:38:19;;;;;;;19.20;9.98;;;1.50;82.20;;;;;;5015374;28;20029;-81
2021/01/12 07:40:47;;;;;;;22.55;11.02;;;1.50;82.00;;;;;;5014589;28;20022;-80
2021/01/12 07:43:28;;;;;;;22.13;10.55;;;1.50;81.90;;;;;;5012299;28;20022;-80
2021/01/12 07:45:58;;;;;;;18.75;10.05;;;1.50;81.40;;;;;;5012263;28;20026;-79
2021/01/12 07:48:27;;;;;;;22.30;10.77;;;1.50;81.30;;;;;;4996654;28;20052;-78
2021/01/12 07:50:53;;;;;;;23.25;11.73;;;1.40;81.40;;;;;;4997818;28;20057;-81
2021/01/12 07:53:20;;;;;;;23.52;12.40;;;1.40;81.30;;;;;;4996642;28;20476;-81
2021/01/12 07:55:49;;;;;;;24.33;12.90;;;1.40;81.40;;;;;;4996758;28;20041;-80
2021/01/12 07:58:17;;;;;;;24.52;12.23;;;1.40;81.20;;;;;;4995849;28;20018;-81
2021/01/12 08:00:46;;;;;;;33.08;15.27;;;1.40;81.40;;;;;;5013345;28;20018;-78
2021/01/12 08:03:12;;;;;;;31.23;13.40;;;1.40;81.50;;;;;;4996143;28;20034;-79
2021/01/12 08:05:39;;;;;;;31.77;16.73;;;1.40;81.40;;;;;;5013445;28;20473;-81
2021/01/12 08:08:11;;;;;;;39.13;17.55;;;1.50;81.50;;;;;;4996564;28;20025;-80
2021/01/12 08:10:39;;;;;;;44.58;17.10;;;1.50;81.60;;;;;;5013440;28;20465;-80
2021/01/12 08:13:11;;;;;;;34.65;16.77;;;1.60;81.60;;;;;;5012429;28;20038;-79
2021/01/12 08:15:40;;;;;;;32.05;15.80;;;1.70;81.40;;;;;;5011786;28;20061;-80
2021/01/12 08:18:10;;;;;;;34.30;14.85;;;1.70;81.70;;;;;;4994680;28;20117;-79
2021/01/12 08:20:37;;;;;;;34.55;15.80;;;2.00;82.30;;;;;;5012270;28;20079;-80
2021/01/12 08:23:02;;;;;;;30.80;15.15;;;2.20;82.10;;;;;;4992970;28;20195;-79
2021/01/12 08:25:31;;;;;;;22.85;11.18;;;2.40;82.00;;;;;;5011492;28;20099;-79
2021/01/12 08:27:59;;;;;;;26.25;12.93;;;2.50;80.60;;;;;;4998288;28;20026;-79
2021/01/12 08:30:27;;;;;;;24.17;12.18;;;2.50;79.80;;;;;;4996692;28;20117;-80
2021/01/12 08:33:06;;;;;;;32.28;14.82;;;2.50;79.80;;;;;;5012307;28;20033;-78
2021/01/12 08:36:03;;;;;;;22.80;11.38;;;2.50;79.50;;;;;;4994810;28;20053;-80
2021/01/12 08:39:07;;;;;;;26.30;14.05;;;2.70;80.10;;;;;;4971774;28;20422;-82
2021/01/12 08:41:37;;;;;;;25.88;13.55;;;3.10;80.20;;;;;;4987772;28;20023;-81
2021/01/12 08:44:03;;;;;;;44.75;20.13;;;3.40;79.90;;;;;;5001782;28;20037;-81
2021/01/12 08:46:29;;;;;;;29.13;15.20;;;3.50;77.50;;;;;;4998783;28;20564;-82
2021/01/12 08:48:57;;;;;;;32.28;14.82;;;3.30;76.70;;;;;;5018036;28;20025;-81
2021/01/12 08:51:39;;;;;;;39.88;14.40;;;3.30;77.30;;;;;;5003151;28;20037;-83
2021/01/12 08:54:24;;;;;;;;;;;;;;;;;;;;;
2021/01/12 08:57:04;;;;;;;28.55;14.98;;;3.40;77.60;;;;;;4976011;28;20033;-79
2021/01/12 08:59:38;;;;;;;40.25;17.02;;;3.40;77.00;;;;;;4975503;28;20047;-80
2021/01/12 09:02:04;;;;;;;33.72;16.92;;;3.30;76.80;;;;;;4975910;28;20102;-80
2021/01/12 09:04:31;;;;;;;31.90;15.40;;;3.30;76.80;;;;;;4975164;28;20042;-79
2021/01/12 09:07:03;;;;;;;31.48;14.32;;;3.20;76.70;;;;;;4974507;28;20496;-80
2021/01/12 09:09:37;;;;;;;29.50;14.43;;;3.20;76.90;;;;;;4958873;28;20034;-78
2021/01/12 09:12:04;;;;;;;22.65;12.18;;;3.30;77.30;;;;;;4957544;28;20169;-80
2021/01/12 09:14:45;;;;;;;25.83;12.88;;;3.40;77.40;;;;;;4972978;28;20497;-79
2021/01/12 09:17:19;;;;;;;30.38;13.52;;;3.50;77.40;;;;;;4972903;28;20445;-79
2021/01/12 09:19:54;;;;;;;25.75;12.88;;;3.60;77.30;;;;;;4973899;28;20490;-79
2021/01/12 09:22:30;;;;;;;21.55;12.43;;;3.60;76.90;;;;;;4975797;28;20037;-79
2021/01/12 09:24:58;;;;;;;33.75;12.75;;;3.50;76.10;;;;;;4986370;28;20045;-78
2021/01/12 09:27:28;;;;;;;24.05;11.48;;;3.30;75.40;;;;;;5014709;28;20030;-79
2021/01/12 09:29:54;;;;;;;25.20;11.25;;;3.20;75.10;;;;;;5014398;28;20030;-78
2021/01/12 09:32:40;;;;;;;21.75;11.32;;;3.00;74.80;;;;;;5014771;28;20034;-79
2021/01/12 09:35:40;;;;;;;28.13;12.82;;;2.90;75.20;;;;;;5000705;28;20048;-78
2021/01/12 09:38:10;;;;;;;24.80;11.73;;;2.90;76.20;;;;;;4985597;28;20037;-79
2021/01/12 09:40:39;;;;;;;20.63;10.60;;;3.00;77.00;;;;;;4998860;28;20052;-82
2021/01/12 09:43:04;;;;;;;19.92;9.45;;;3.10;77.20;;;;;;5014222;28;20037;-78
2021/01/12 09:45:48;;;;;;;23.35;9.70;;;3.10;77.20;;;;;;4997309;28;20025;-80
2021/01/12 09:48:16;;;;;;;17.98;9.48;;;3.20;76.40;;;;;;4996838;28;20109;-78
2021/01/12 09:50:41;;;;;;;19.15;10.95;;;3.20;76.90;;;;;;4996152;28;20057;-78
2021/01/12 09:53:07;;;;;;;18.40;10.23;;;3.30;76.40;;;;;;5014303;28;20445;-77
2021/01/12 09:55:36;;;;;;;22.00;11.65;;;3.20;75.70;;;;;;4996534;28;20029;-78
2021/01/12 09:58:01;;;;;;;21.67;11.25;;;3.10;75.80;;;;;;5014058;28;20026;-79
2021/01/12 10:00:27;;;;;;;21.92;11.55;;;3.10;76.10;;;;;;5013714;28;20096;-78
2021/01/12 10:03:00;;;;;;;28.33;12.45;;;3.10;76.60;;;;;;5014968;28;20041;-78
2021/01/12 10:05:48;;;;;;;32.00;14.60;;;3.10;76.30;;;;;;4997552;28;20053;-80
2021/01/12 10:08:17;;;;;;;39.28;15.07;;;3.20;76.70;;;;;;4998485;28;20143;-83
2021/01/12 10:10:43;;;;;;;31.85;12.25;;;3.30;76.50;;;;;;4997732;28;20032;-81
2021/01/12 10:13:09;;;;;;;32.70;11.50;;;3.30;76.90;;;;;;5014522;28;20108;-82
2021/01/12 10:15:34;;;;;;;17.92;8.05;;;3.40;77.00;;;;;;5015150;28;20056;-84
2021/01/12 10:18:02;;;;;;;36.35;10.05;;;3.50;76.40;;;;;;5015114;28;20129;-83
2021/01/12 10:20:31;;;;;;;21.83;9.77;;;3.40;74.90;;;;;;5015070;28;20117;-83
2021/01/12 10:22:56;;;;;;;21.92;10.27;;;3.20;74.20;;;;;;4997769;28;20029;-83
2021/01/12 10:25:23;;;;;;;17.27;9.10;;;3.10;74.80;;;;;;5015271;28;20022;-83
2021/01/12 10:27:48;;;;;;;19.42;10.40;;;3.10;74.90;;;;;;4997388;28;20022;-83
2021/01/12 10:30:15;;;;;;;21.13;11.40;;;3.00;74.60;;;;;;4997625;28;20337;-83
2021/01/12 10:32:45;;;;;;;21.65;9.50;;;3.00;74.10;;;;;;5015005;28;20025;-84
2021/01/12 10:35:11;;;;;;;14.55;8.63;;;2.90;74.30;;;;;;5014858;28;20033;-82
2021/01/12 10:37:37;;;;;;;10.05;6.70;;;2.90;74.60;;;;;;4997513;28;20022;-83
2021/01/12 10:40:03;;;;;;;13.32;7.70;;;2.90;74.00;;;;;;5015008;28;20072;-82
2021/01/12 10:42:36;;;;;;;15.00;8.15;;;2.90;73.50;;;;;;5015559;28;20029;-83
2021/01/12 10:45:02;;;;;;;18.40;7.85;;;2.80;73.30;;;;;;5015729;28;20140;-83
2021/01/12 10:47:31;;;;;;;14.30;8.05;;;2.70;73.40;;;;;;5014345;28;20029;-82
2021/01/12 10:49:57;;;;;;;14.90;8.88;;;2.70;73.30;;;;;;5015202;28;20108;-82
2021/01/12 10:52:23;;;;;;;14.50;8.32;;;2.60;73.50;;;;;;5014276;28;20109;-83
2021/01/12 10:54:49;;;;;;;16.70;9.30;;;2.60;74.10;;;;;;5013568;28;20088;-82
2021/01/12 10:57:14;;;;;;;15.20;7.28;;;2.60;73.50;;;;;;5013778;28;20014;-82
2021/01/12 10:59:40;;;;;;;18.55;8.80;;;2.50;73.40;;;;;;5013916;28;20558;-83
2021/01/12 11:02:13;;;;;;;17.10;9.00;;;2.40;73.90;;;;;;5013370;28;20032;-83
2021/01/12 11:04:38;;;;;;;18.63;9.95;;;2.40;74.20;;;;;;5014122;28;20025;-83
2021/01/12 11:07:05;;;;;;;13.73;8.35;;;2.40;74.40;;;;;;5014474;28;20387;-84
2021/01/12 11:09:32;;;;;;;14.80;8.13;;;2.50;74.50;;;;;;4996274;28;20365;-84
2021/01/12 11:12:09;;;;;;;16.20;8.40;;;2.40;74.40;;;;;;5014712;28;20053;-84
2021/01/12 11:14:39;;;;;;;15.30;7.97;;;2.40;74.10;;;;;;4997044;28;20458;-83
2021/01/12 11:17:04;;;;;;;16.83;9.00;;;2.40;74.60;;;;;;5014966;28;20033;-84
2021/01/12 11:19:42;;;;;;;12.27;7.50;;;2.40;74.80;;;;;;4997200;28;20377;-83
2021/01/12 11:22:08;;;;;;;10.93;6.25;;;2.40;74.90;;;;;;4996887;28;20089;-82
2021/01/12 11:24:34;;;;;;;13.70;6.93;;;2.40;74.70;;;;;;4996810;28;20042;-82
2021/01/12 11:27:05;;;;;;;12.27;6.72;;;2.40;75.20;;;;;;5014320;28;20033;-83
2021/01/12 11:29:31;;;;;;;9.23;5.45;;;2.50;75.10;;;;;;5013897;28;20018;-83
2021/01/12 11:31:58;;;;;;;9.88;6.25;;;2.40;74.90;;;;;;4996907;28;20096;-83
2021/01/12 11:34:24;;;;;;;9.77;5.85;;;2.30;74.20;;;;;;5000394;28;20077;-82
2021/01/12 11:36:50;;;;;;;10.95;6.43;;;2.20;74.20;;;;;;5013729;28;20048;-83
2021/01/12 11:39:18;;;;;;;10.75;6.97;;;2.20;74.60;;;;;;4996067;28;20145;-82
2021/01/12 11:41:54;;;;;;;9.45;5.20;;;2.10;74.30;;;;;;5013686;28;20034;-82
2021/01/12 11:44:21;;;;;;;10.90;5.80;;;2.00;74.20;;;;;;5013707;28;20022;-83
2021/01/12 11:46:47;;;;;;;19.92;8.68;;;2.00;75.20;;;;;;5013819;28;20054;-81
2021/01/12 11:49:14;;;;;;;15.10;7.72;;;1.90;74.90;;;;;;5013518;28;20152;-82
2021/01/12 11:51:42;;;;;;;15.50;8.13;;;1.90;74.90;;;;;;4995804;28;20044;-82
2021/01/12 11:54:09;;;;;;;15.52;7.25;;;1.80;74.60;;;;;;4995804;28;20124;-84
2021/01/12 11:56:39;;;;;;;11.95;6.22;;;1.70;74.90;;;;;;5013424;28;20042;-82
2021/01/12 11:59:05;;;;;;;14.50;6.93;;;1.70;75.60;;;;;;5013692;28;20022;-82
2021/01/12 12:01:45;;;;;;;7.30;4.32;;;1.70;75.70;;;;;;5013793;28;20029;-82
2021/01/12 12:04:11;;;;;;;8.23;4.93;;;1.70;75.50;;;;;;4995494;28;20110;-82
2021/01/12 12:06:37;;;;;;;11.00;6.43;;;1.70;75.40;;;;;;5013195;28;20017;-82
2021/01/12 12:09:04;;;;;;;16.30;6.78;;;1.60;75.50;;;;;;4995765;28;20441;-83
2021/01/12 12:11:37;;;;;;;10.65;5.47;;;1.60;75.20;;;;;;4995483;28;20796;-82
2021/01/12 12:14:04;;;;;;;9.98;5.50;;;1.50;75.50;;;;;;5013519;28;20058;-83
2021/01/12 12:16:31;;;;;;;6.93;4.50;;;1.50;75.60;;;;;;5013292;28;20499;-82
2021/01/12 12:18:57;;;;;;;11.90;5.60;;;1.40;75.80;;;;;;5013370;28;20097;-81
2021/01/12 12:21:23;;;;;;;13.38;6.93;;;1.50;76.20;;;;;;5012561;28;20036;-83
2021/01/12 12:23:49;;;;;;;9.68;5.47;;;1.50;76.60;;;;;;4995374;28;20049;-82
2021/01/12 12:26:15;;;;;;;8.90;4.93;;;1.50;76.30;;;;;;4995587;28;20433;-82
2021/01/12 12:28:44;;;;;;;10.93;5.07;;;1.50;76.30;;;;;;4995214;28;20077;-82
2021/01/12 12:31:09;;;;;;;9.55;6.15;;;1.50;76.30;;;;;;5013358;28;20049;-84
2021/01/12 12:33:35;;;;;;;14.48;7.13;;;1.50;76.40;;;;;;4995719;28;20377;-82
2021/01/12 12:36:07;;;;;;;12.70;6.40;;;1.50;76.70;;;;;;5013444;28;20061;-82
2021/01/12 12:38:35;;;;;;;13.48;6.80;;;1.50;76.40;;;;;;5013670;28;20073;-82
2021/01/12 12:41:06;;;;;;;12.60;6.28;;;1.50;76.60;;;;;;4995731;28;20026;-82
2021/01/12 12:43:32;;;;;;;10.68;5.85;;;1.50;76.80;;;;;;5012969;28;20026;-82
2021/01/12 12:46:01;;;;;;;11.73;6.78;;;1.50;76.90;;;;;;4995583;28;20361;-82
2021/01/12 12:48:27;;;;;;;14.20;7.90;;;1.50;76.90;;;;;;5013395;28;20026;-84
2021/01/12 12:50:53;;;;;;;20.95;7.78;;;1.50;76.90;;;;;;5013406;28;20033;-81
2021/01/12 12:53:20;;;;;;;16.05;8.73;;;1.40;76.10;;;;;;4997571;28;20037;-82
2021/01/12 12:55:51;;;;;;;22.05;11.52;;;1.30;75.90;;;;;;5015091;28;20085;-83